createdAt,value
2024-01-15T00:01:53.919Z,99349.38
2024-01-15T00:04:21.424Z,99359.09
2024-01-15T00:06:51.037Z,99342.62
2024-01-15T00:09:18.111Z,99338.59
2024-01-15T00:11:45.484Z,99339.81
2024-01-15T00:14:13.090Z,99328.94
2024-01-15T00:16:41.871Z,99323.63
2024-01-15T00:19:09.315Z,99319.97
2024-01-15T00:21:36.928Z,99323.69
2024-01-15T00:24:04.132Z,99314.50
2024-01-15T00:26:32.033Z,99306.06
2024-01-15T00:28:59.584Z,99304.00
2024-01-15T00:31:27.354Z,99301.13
2024-01-15T00:33:55.439Z,99294.19
2024-01-15T00:36:22.589Z,99288.06
2024-01-15T00:38:50.169Z,99265.06
2024-01-15T00:41:19.392Z,99270.84
2024-01-15T00:43:46.951Z,99278.63
2024-01-15T00:46:14.075Z,99280.06
2024-01-15T00:48:42.052Z,99265.38
2024-01-15T00:51:09.219Z,99281.53
2024-01-15T00:53:36.710Z,99277.53
2024-01-15T00:56:04.361Z,99269.22
2024-01-15T00:58:31.955Z,99261.53
2024-01-15T01:00:59.096Z,99259.09
2024-01-15T01:03:27.000Z,99261.84
2024-01-15T01:05:54.133Z,99265.19
2024-01-15T01:08:21.679Z,99268.81
2024-01-15T01:10:48.987Z,99260.63
2024-01-15T01:13:18.371Z,99258.69
2024-01-15T01:15:45.548Z,99262.88
2024-01-15T01:18:13.727Z,99259.84
2024-01-15T01:20:40.990Z,99248.09
2024-01-15T01:23:08.711Z,99245.22
2024-01-15T01:25:36.050Z,99239.34
2024-01-15T01:28:03.375Z,99250.53
2024-01-15T01:30:31.000Z,99243.12
2024-01-15T01:32:58.341Z,99231.56
2024-01-15T01:35:25.958Z,99237.81
2024-01-15T01:37:53.477Z,99248.44
2024-01-15T01:40:20.956Z,99242.44
2024-01-15T01:42:49.401Z,99232.97
2024-01-15T01:45:16.537Z,99234.41
2024-01-15T01:47:44.516Z,99236.06
2024-01-15T01:50:13.990Z,99218.66
2024-01-15T01:52:41.847Z,99215.84
2024-01-15T01:55:10.414Z,99200.91
2024-01-15T01:57:38.037Z,99201.63
2024-01-15T02:00:07.892Z,99185.37
2024-01-15T02:02:38.831Z,99190.38
2024-01-15T02:05:07.290Z,99169.25
2024-01-15T02:07:35.987Z,99182.41
2024-01-15T02:10:03.824Z,99173.09
2024-01-15T02:12:31.128Z,99177.81
2024-01-15T02:14:58.183Z,99173.47
2024-01-15T02:17:25.828Z,99174.28
2024-01-15T02:19:53.389Z,99185.78
2024-01-15T02:22:21.034Z,99179.28
2024-01-15T02:24:48.256Z,99166.88
2024-01-15T02:27:16.390Z,99166.44
2024-01-15T02:29:43.618Z,99158.28
2024-01-15T02:32:10.649Z,99167.91
2024-01-15T02:34:38.516Z,99158.09
2024-01-15T02:37:05.662Z,99163.34
2024-01-15T02:39:35.904Z,99148.59
2024-01-15T02:42:03.185Z,99146.97
2024-01-15T02:44:30.188Z,99144.44
2024-01-15T02:46:57.199Z,99139.34
2024-01-15T02:49:24.634Z,99124.06
2024-01-15T02:51:52.756Z,99111.22
2024-01-15T02:54:19.798Z,99134.75
2024-01-15T02:56:47.083Z,99152.81
2024-01-15T02:59:14.156Z,99140.66
2024-01-15T03:01:41.270Z,99138.91
2024-01-15T03:04:08.683Z,99122.94
2024-01-15T03:06:35.746Z,99119.69
2024-01-15T03:09:04.886Z,99117.19
2024-01-15T03:11:39.071Z,99104.56
2024-01-15T03:14:06.483Z,99107.31
2024-01-15T03:16:34.088Z,99115.75
2024-01-15T03:19:01.224Z,99111.56
2024-01-15T03:21:28.301Z,99109.94
2024-01-15T03:23:55.573Z,99104.13
2024-01-15T03:26:22.597Z,99109.22
2024-01-15T03:28:49.670Z,99099.78
2024-01-15T03:31:17.164Z,99104.09
2024-01-15T03:33:44.332Z,99092.78
2024-01-15T03:36:12.238Z,99085.09
2024-01-15T03:38:43.353Z,99098.88
2024-01-15T03:41:10.396Z,99098.31
2024-01-15T03:43:37.387Z,99105.41
2024-01-15T03:46:05.517Z,99110.38
2024-01-15T03:48:36.139Z,99119.72
2024-01-15T03:51:03.398Z,99124.03
2024-01-15T03:53:30.715Z,99111.44
2024-01-15T03:55:57.732Z,99112.62
2024-01-15T03:58:25.357Z,99116.87
2024-01-15T04:00:52.753Z,99115.97
2024-01-15T04:03:20.175Z,99110.25
2024-01-15T04:05:47.340Z,99099.03
2024-01-15T04:08:14.346Z,99122.56
2024-01-15T04:10:41.681Z,99115.53
2024-01-15T04:13:08.740Z,99114.81
2024-01-15T04:15:36.017Z,99113.34
2024-01-15T04:18:03.990Z,99095.44
2024-01-15T04:20:31.049Z,99087.81
2024-01-15T04:22:58.062Z,99079.37
2024-01-15T04:25:25.336Z,99076.16
2024-01-15T04:27:52.405Z,99077.31
2024-01-15T04:30:19.620Z,99075.28
2024-01-15T04:32:46.965Z,99080.38
2024-01-15T04:35:16.364Z,99075.09
2024-01-15T04:37:43.462Z,99092.66
2024-01-15T04:40:11.146Z,99089.06
2024-01-15T04:42:38.313Z,99072.22
2024-01-15T04:45:05.604Z,99073.94
2024-01-15T04:47:33.264Z,99061.38
2024-01-15T04:50:00.477Z,99058.84
2024-01-15T04:52:27.587Z,99066.81
2024-01-15T04:54:54.953Z,99054.63
2024-01-15T04:57:24.671Z,99062.41
2024-01-15T04:59:51.723Z,99078.44
2024-01-15T05:02:19.109Z,99081.03
2024-01-15T05:04:46.130Z,99086.81
2024-01-15T05:07:13.214Z,99085.59
2024-01-15T05:09:40.597Z,99083.97
2024-01-15T05:12:08.003Z,99091.81
2024-01-15T05:14:35.067Z,99096.25
2024-01-15T05:17:02.419Z,99085.19
2024-01-15T05:19:29.712Z,99090.34
2024-01-15T05:21:58.492Z,99072.78
2024-01-15T05:24:27.630Z,99081.34
2024-01-15T05:26:54.732Z,99081.03
2024-01-15T05:29:21.778Z,99084.34
2024-01-15T05:31:49.192Z,99086.34
2024-01-15T05:34:17.167Z,99074.84
2024-01-15T05:36:44.669Z,99079.41
2024-01-15T05:39:11.981Z,99082.81
2024-01-15T05:41:39.108Z,99057.09
2024-01-15T05:44:06.912Z,99075.22
2024-01-15T05:46:34.237Z,99087.16
2024-01-15T05:49:01.405Z,99098.22
2024-01-15T05:51:34.250Z,99088.84
2024-01-15T05:54:01.571Z,99100.44
2024-01-15T05:56:28.556Z,99095.66
2024-01-15T05:58:55.566Z,99091.66
2024-01-15T06:01:22.890Z,99083.88
2024-01-15T06:03:50.268Z,99094.59
2024-01-15T06:06:17.426Z,99086.84
2024-01-15T06:08:44.474Z,99088.03
2024-01-15T06:11:11.761Z,99088.78
2024-01-15T06:13:38.855Z,99082.91
2024-01-15T06:16:14.463Z,99090.94
2024-01-15T06:18:42.204Z,99093.53
2024-01-15T06:21:11.502Z,99099.03
2024-01-15T06:23:38.736Z,99085.91
2024-01-15T06:26:06.562Z,99082.09
2024-01-15T06:28:36.011Z,99102.47
2024-01-15T06:31:03.224Z,99100.63
2024-01-15T06:33:36.206Z,99093.16
2024-01-15T06:36:03.384Z,99090.84
2024-01-15T06:38:30.651Z,99090.00
2024-01-15T06:40:57.714Z,99097.75
2024-01-15T06:43:24.752Z,99096.72
2024-01-15T06:45:52.114Z,99099.03
2024-01-15T06:48:19.136Z,99095.88
2024-01-15T06:50:47.074Z,99104.06
2024-01-15T06:53:14.376Z,99102.06
2024-01-15T06:55:41.475Z,99112.81
2024-01-15T06:58:09.580Z,99114.63
2024-01-15T07:00:39.023Z,99119.22
2024-01-15T07:03:06.613Z,99126.41
2024-01-15T07:05:33.704Z,99119.06
2024-01-15T07:08:01.133Z,99115.09
2024-01-15T07:10:28.648Z,99125.37
2024-01-15T07:12:55.744Z,99124.50
2024-01-15T07:15:25.278Z,99122.06
2024-01-15T07:17:52.355Z,99127.75
2024-01-15T07:20:20.623Z,99127.22
2024-01-15T07:22:47.996Z,99121.88
2024-01-15T07:25:16.720Z,99121.78
2024-01-15T07:27:47.468Z,99118.00
2024-01-15T07:30:15.187Z,99125.91
2024-01-15T07:32:48.543Z,99131.50
2024-01-15T07:35:19.713Z,99128.88
2024-01-15T07:37:48.652Z,99126.38
2024-01-15T07:40:17.663Z,99122.69
2024-01-15T07:42:44.862Z,99125.66
2024-01-15T07:45:13.362Z,99125.25
2024-01-15T07:47:40.717Z,99132.69
2024-01-15T07:50:11.032Z,99132.37
2024-01-15T07:52:45.343Z,99133.97
2024-01-15T07:55:12.724Z,99126.75
2024-01-15T07:57:40.949Z,99124.22
2024-01-15T08:00:10.274Z,99143.97
2024-01-15T08:02:39.637Z,99142.41
2024-01-15T08:05:06.815Z,99149.56
2024-01-15T08:07:33.950Z,99144.56
2024-01-15T08:10:04.464Z,99153.13
2024-01-15T08:12:31.665Z,99147.16
2024-01-15T08:14:59.495Z,99159.75
2024-01-15T08:17:30.028Z,99157.00
2024-01-15T08:19:57.823Z,99157.22
2024-01-15T08:22:24.923Z,99158.94
2024-01-15T08:24:58.408Z,99169.16
2024-01-15T08:27:25.441Z,99166.19
2024-01-15T08:29:52.742Z,99148.44
2024-01-15T08:32:21.817Z,99153.28
2024-01-15T08:34:50.286Z,99174.69
2024-01-15T08:37:18.572Z,99161.13
2024-01-15T08:39:45.677Z,99156.38
2024-01-15T08:42:13.235Z,99165.75
2024-01-15T08:44:42.728Z,99162.81
2024-01-15T08:47:11.032Z,99152.09
2024-01-15T08:49:38.782Z,99150.50
2024-01-15T08:52:06.747Z,99148.31
2024-01-15T08:54:34.273Z,99155.87
2024-01-15T08:57:01.932Z,99141.19
2024-01-15T08:59:29.760Z,99145.81
2024-01-15T09:01:59.818Z,99157.47
2024-01-15T09:04:29.574Z,99160.41
2024-01-15T09:06:58.651Z,99162.37
2024-01-15T09:09:28.812Z,99165.50
2024-01-15T09:11:55.849Z,99164.69
2024-01-15T09:14:33.455Z,99160.25
2024-01-15T09:17:07.683Z,99164.34
2024-01-15T09:19:36.227Z,99156.16
2024-01-15T09:22:04.777Z,99149.47
2024-01-15T09:24:32.472Z,99150.44
2024-01-15T09:27:00.303Z,99141.66
2024-01-15T09:29:27.354Z,99138.22
2024-01-15T09:31:55.341Z,99146.81
2024-01-15T09:34:25.456Z,99146.97
2024-01-15T09:36:53.208Z,99145.84
2024-01-15T09:39:22.643Z,99138.03
2024-01-15T09:41:50.797Z,99137.31
2024-01-15T09:44:18.191Z,99125.91
2024-01-15T09:46:48.051Z,99121.03
2024-01-15T09:49:15.410Z,99110.66
2024-01-15T09:51:43.393Z,99110.09
2024-01-15T09:54:10.885Z,99107.81
2024-01-15T09:56:40.901Z,99105.34
2024-01-15T09:59:19.633Z,99100.19
2024-01-15T10:01:48.920Z,99091.28
2024-01-15T10:04:18.237Z,99099.69
2024-01-15T10:06:48.924Z,99104.88
2024-01-15T10:09:16.984Z,99104.50
2024-01-15T10:11:44.806Z,99106.09
2024-01-15T10:14:15.956Z,99089.59
2024-01-15T10:16:44.830Z,99092.72
2024-01-15T10:19:12.183Z,99089.88
2024-01-15T10:21:40.321Z,99084.53
2024-01-15T10:24:08.877Z,99065.09
2024-01-15T10:26:35.937Z,99070.72
2024-01-15T10:29:03.026Z,99061.00
2024-01-15T10:31:32.063Z,99066.09
2024-01-15T10:34:26.184Z,99060.47
2024-01-15T10:36:58.246Z,99048.72
2024-01-15T10:39:26.338Z,99055.47
2024-01-15T10:41:53.702Z,99046.63
2024-01-15T10:44:20.676Z,99051.50
2024-01-15T10:46:48.810Z,99053.69
2024-01-15T10:49:16.513Z,99057.41
2024-01-15T10:51:44.356Z,99045.66
2024-01-15T10:54:13.134Z,99034.06
2024-01-15T10:56:40.432Z,99035.09
2024-01-15T10:59:09.045Z,99030.50
2024-01-15T11:01:36.379Z,99034.91
2024-01-15T11:04:04.005Z,99036.97
2024-01-15T11:07:00.861Z,99041.59
2024-01-15T11:09:28.281Z,99046.19
2024-01-15T11:12:13.819Z,99043.91
2024-01-15T11:14:45.683Z,99046.75
2024-01-15T11:17:14.090Z,99050.31
2024-01-15T11:19:54.332Z,99052.28
2024-01-15T11:22:30.821Z,99043.88
2024-01-15T11:25:02.669Z,99048.44
2024-01-15T11:27:44.887Z,99034.41
2024-01-15T11:30:13.603Z,99048.81
2024-01-15T11:32:44.705Z,99039.84
2024-01-15T11:35:12.629Z,99033.09
2024-01-15T11:37:53.829Z,99040.16
2024-01-15T11:40:23.789Z,99028.91
2024-01-15T11:42:51.023Z,99022.34
2024-01-15T11:45:20.966Z,99023.44
2024-01-15T11:48:01.100Z,99018.34
2024-01-15T11:50:31.792Z,99015.78
2024-01-15T11:53:07.322Z,99014.75
2024-01-15T11:55:37.540Z,98990.50
2024-01-15T11:58:13.461Z,98994.81
2024-01-15T12:00:51.104Z,98986.25
2024-01-15T12:03:18.604Z,98988.25
2024-01-15T12:05:45.675Z,98992.66
2024-01-15T12:08:23.610Z,98996.34
2024-01-15T12:10:51.208Z,98998.94
2024-01-15T12:13:20.889Z,98987.78
2024-01-15T12:15:49.340Z,98987.44
2024-01-15T12:18:19.339Z,98966.78
2024-01-15T12:20:51.350Z,98967.62
2024-01-15T12:23:19.173Z,98966.81
2024-01-15T12:25:48.096Z,98966.22
2024-01-15T12:28:17.301Z,98955.03
2024-01-15T12:30:50.088Z,98950.91
2024-01-15T12:33:18.969Z,98955.91
2024-01-15T12:35:46.258Z,98964.00
2024-01-15T12:38:13.436Z,98949.28
2024-01-15T12:40:47.357Z,98944.09
2024-01-15T12:43:14.713Z,98938.22
2024-01-15T12:45:41.823Z,98956.41
2024-01-15T12:48:10.701Z,98952.19
2024-01-15T12:50:38.047Z,98949.53
2024-01-15T12:53:05.220Z,98947.41
2024-01-15T12:55:32.517Z,98946.47
2024-01-15T12:57:59.848Z,98946.66
2024-01-15T13:00:27.406Z,98943.50
2024-01-15T13:02:56.133Z,98956.97
2024-01-15T13:05:24.263Z,98950.06
2024-01-15T13:07:51.773Z,98944.91
2024-01-15T13:10:18.852Z,98945.25
2024-01-15T13:12:47.375Z,98950.25
2024-01-15T13:15:15.610Z,98942.13
2024-01-15T13:17:44.233Z,98937.88
2024-01-15T13:20:13.555Z,98940.25
2024-01-15T13:22:44.777Z,98937.53
2024-01-15T13:25:12.673Z,98942.47
2024-01-15T13:27:41.716Z,98945.06
2024-01-15T13:30:10.177Z,98944.56
2024-01-15T13:32:39.069Z,98949.53
2024-01-15T13:35:10.990Z,98959.78
2024-01-15T13:37:39.120Z,98955.34
2024-01-15T13:40:08.856Z,98951.22
2024-01-15T13:42:39.361Z,98959.13
2024-01-15T13:45:07.281Z,98965.09
2024-01-15T13:47:34.399Z,98970.09
2024-01-15T13:50:03.260Z,98956.53
2024-01-15T13:52:31.371Z,98960.25
2024-01-15T13:54:58.459Z,98954.44
2024-01-15T13:57:26.002Z,98955.47
2024-01-15T13:59:53.344Z,98946.59
2024-01-15T14:02:22.835Z,98953.50
2024-01-15T14:04:52.077Z,98951.03
2024-01-15T14:07:19.173Z,98952.59
2024-01-15T14:09:46.297Z,98955.97
2024-01-15T14:12:14.272Z,98951.69
2024-01-15T14:14:41.730Z,98941.44
2024-01-15T14:17:08.962Z,98938.75
2024-01-15T14:19:37.338Z,98938.75
2024-01-15T14:22:04.980Z,98933.63
2024-01-15T14:24:33.410Z,98948.06
2024-01-15T14:27:01.256Z,98953.03
2024-01-15T14:29:29.044Z,98945.75
2024-01-15T14:31:56.593Z,98943.84
2024-01-15T14:34:25.428Z,98944.84
2024-01-15T14:36:56.820Z,98946.22
2024-01-15T14:39:25.762Z,98955.09
2024-01-15T14:41:53.592Z,98946.72
2024-01-15T14:44:22.283Z,98947.78
2024-01-15T14:46:49.684Z,98948.13
2024-01-15T14:49:18.277Z,98953.41
2024-01-15T14:51:46.178Z,98949.91
2024-01-15T14:54:13.671Z,98947.78
2024-01-15T14:56:40.837Z,98958.06
2024-01-15T14:59:07.936Z,98951.94
2024-01-15T15:01:35.606Z,98956.69
2024-01-15T15:04:03.463Z,98953.47
2024-01-15T15:06:30.807Z,98957.28
2024-01-15T15:09:01.508Z,98946.00
2024-01-15T15:11:29.221Z,98943.59
2024-01-15T15:14:01.374Z,98942.09
2024-01-15T15:16:28.685Z,98943.16
2024-01-15T15:18:56.037Z,98938.53
2024-01-15T15:21:23.509Z,98937.38
2024-01-15T15:23:55.975Z,98935.03
2024-01-15T15:26:42.949Z,98936.88
2024-01-15T15:29:10.347Z,98943.66
2024-01-15T15:31:37.737Z,98942.31
2024-01-15T15:34:06.962Z,98959.41
2024-01-15T15:36:36.644Z,98955.72
2024-01-15T15:39:04.264Z,98950.22
2024-01-15T15:41:32.294Z,98964.84
2024-01-15T15:44:00.072Z,98958.59
2024-01-15T15:46:29.263Z,98960.84
2024-01-15T15:48:56.719Z,98959.19
2024-01-15T15:51:24.098Z,98970.53
2024-01-15T15:53:52.900Z,98968.91
2024-01-15T15:56:20.037Z,98972.19
2024-01-15T15:58:48.507Z,98976.12
2024-01-15T16:01:17.079Z,98981.22
2024-01-15T16:03:47.602Z,98984.78
2024-01-15T16:06:16.285Z,98994.09
2024-01-15T16:08:44.957Z,98992.12
2024-01-15T16:11:12.266Z,99001.00
2024-01-15T16:13:39.297Z,98999.25
2024-01-15T16:23:09.692Z,98995.28
2024-01-15T16:23:22.824Z,99012.44
2024-01-15T16:23:37.709Z,99002.31
2024-01-15T16:24:37.973Z,99006.22
2024-01-15T16:29:44.384Z,99006.31
2024-01-15T16:32:11.932Z,99024.56
2024-01-15T16:34:39.532Z,99032.28
2024-01-15T16:37:07.625Z,99030.81
2024-01-15T16:39:35.807Z,99046.41
2024-01-15T16:42:03.464Z,99054.34
2024-01-15T16:44:31.759Z,99047.87
2024-01-15T16:47:10.590Z,99050.25
2024-01-15T16:49:38.529Z,99065.31
2024-01-15T16:52:08.267Z,99060.03
2024-01-15T16:54:37.440Z,99068.44
2024-01-15T16:57:05.601Z,99053.25
2024-01-15T16:59:33.243Z,99067.78
2024-01-15T17:02:01.080Z,99064.75
2024-01-15T17:04:28.497Z,99051.84
2024-01-15T17:06:55.575Z,99051.50
2024-01-15T17:09:23.301Z,99045.75
2024-01-15T17:11:50.757Z,99045.31
2024-01-15T17:14:18.781Z,99046.28
2024-01-15T17:16:47.462Z,99050.34
2024-01-15T17:19:15.406Z,99034.75
2024-01-15T17:21:42.535Z,99043.56
2024-01-15T17:24:09.579Z,99038.50
2024-01-15T17:26:37.493Z,99052.84
2024-01-15T17:29:05.360Z,99050.34
2024-01-15T17:31:32.510Z,99052.19
2024-01-15T17:34:01.316Z,99047.19
2024-01-15T17:36:28.451Z,99051.53
2024-01-15T17:38:55.545Z,99052.62
2024-01-15T17:41:23.658Z,99051.06
2024-01-15T17:43:50.683Z,99056.75
2024-01-15T17:46:17.696Z,99046.25
2024-01-15T17:48:45.482Z,99038.81
2024-01-15T17:51:18.066Z,99048.37
2024-01-15T17:53:50.049Z,99048.13
2024-01-15T17:56:17.161Z,99064.75
2024-01-15T17:58:45.023Z,99058.22
2024-01-15T18:01:12.999Z,99066.94
2024-01-15T18:03:43.178Z,99065.41
2024-01-15T18:06:10.886Z,99065.50
2024-01-15T18:08:38.625Z,99065.34
2024-01-15T18:11:06.032Z,99068.59
2024-01-15T18:13:33.602Z,99071.06
2024-01-15T18:16:00.674Z,99071.31
2024-01-15T18:18:29.184Z,99055.13
2024-01-15T18:20:57.248Z,99045.75
2024-01-15T18:23:24.331Z,99056.81
2024-01-15T18:25:52.127Z,99083.25
2024-01-15T18:28:19.661Z,99088.34
2024-01-15T18:30:46.700Z,99095.06
2024-01-15T18:35:42.425Z,99110.25
2024-01-15T18:38:09.676Z,99103.81
2024-01-15T18:40:38.161Z,99116.34
2024-01-15T18:43:05.264Z,99118.41
2024-01-15T18:45:32.877Z,99128.69
2024-01-15T18:48:01.706Z,99126.81
2024-01-15T18:50:30.065Z,99131.13
2024-01-15T18:52:57.229Z,99117.50
2024-01-15T18:55:24.759Z,99124.44
2024-01-15T18:57:52.392Z,99133.94
2024-01-15T19:00:22.102Z,99136.44
2024-01-15T19:02:50.289Z,99129.66
2024-01-15T19:05:19.059Z,99103.00
2024-01-15T19:07:47.435Z,99109.09
2024-01-15T19:10:14.934Z,99119.16
2024-01-15T19:12:43.445Z,99118.47
2024-01-15T19:15:10.689Z,99128.50
2024-01-15T19:17:39.378Z,99133.50
2024-01-15T19:20:08.814Z,99134.44
2024-01-15T19:22:36.964Z,99131.06
2024-01-15T19:25:04.498Z,99123.06
2024-01-15T19:27:32.364Z,99116.19
2024-01-15T19:30:01.865Z,99113.16
2024-01-15T19:32:29.332Z,99104.50
2024-01-15T19:34:56.493Z,99115.66
2024-01-15T19:37:26.383Z,99115.06
2024-01-15T19:39:54.840Z,99120.19
2024-01-15T19:42:21.860Z,99123.87
2024-01-15T19:44:49.426Z,99118.88
2024-01-15T19:47:16.756Z,99126.09
2024-01-15T19:49:48.940Z,99132.41
2024-01-15T19:52:19.323Z,99125.63
2024-01-15T19:54:46.639Z,99137.03
2024-01-15T19:57:15.158Z,99144.12
2024-01-15T19:59:43.643Z,99137.56
2024-01-15T20:02:10.733Z,99139.22
2024-01-15T20:04:52.060Z,99152.19
2024-01-15T20:07:19.074Z,99151.72
2024-01-15T20:09:46.374Z,99149.09
2024-01-15T20:12:13.447Z,99160.78
2024-01-15T20:14:40.458Z,99170.37
2024-01-15T20:17:08.043Z,99180.09
2024-01-15T20:19:36.155Z,99182.75
2024-01-15T20:22:04.335Z,99187.91
2024-01-15T20:24:31.759Z,99187.09
2024-01-15T20:26:58.777Z,99183.56
2024-01-15T20:29:28.094Z,99196.53
2024-01-15T20:31:55.411Z,99179.81
2024-01-15T20:34:23.353Z,99181.00
2024-01-15T20:36:51.952Z,99188.16
2024-01-15T20:39:19.268Z,99193.09
2024-01-15T20:41:46.906Z,99193.69
2024-01-15T20:44:14.169Z,99195.34
2024-01-15T20:46:41.447Z,99192.44
2024-01-15T20:49:08.563Z,99178.91
2024-01-15T20:51:37.941Z,99169.75
2024-01-15T20:54:05.230Z,99152.50
2024-01-15T20:56:32.266Z,99152.16
2024-01-15T20:59:00.677Z,99161.09
2024-01-15T21:01:29.324Z,99162.50
2024-01-15T21:03:56.464Z,99165.25
2024-01-15T21:06:23.543Z,99175.59
2024-01-15T21:08:51.121Z,99188.41
2024-01-15T21:11:19.980Z,99194.53
2024-01-15T21:13:48.872Z,99195.22
2024-01-15T21:16:16.455Z,99197.84
2024-01-15T21:18:43.522Z,99192.94
2024-01-15T21:21:10.928Z,99194.19
2024-01-15T21:23:38.285Z,99198.50
2024-01-15T21:26:05.737Z,99212.41
2024-01-15T21:28:33.584Z,99222.13
2024-01-15T21:31:01.060Z,99213.12
2024-01-15T21:33:37.836Z,99200.53
2024-01-15T21:36:06.074Z,99198.22
2024-01-15T21:38:33.166Z,99213.84
2024-01-15T21:41:00.374Z,99212.59
2024-01-15T21:43:27.737Z,99222.94
2024-01-15T21:45:54.767Z,99219.75
2024-01-15T21:48:21.912Z,99228.34
2024-01-15T21:50:49.363Z,99249.84
2024-01-15T21:53:18.420Z,99257.31
2024-01-15T21:55:45.504Z,99248.34
2024-01-15T21:58:12.867Z,99233.06
2024-01-15T22:00:40.813Z,99238.44
2024-01-15T22:03:08.698Z,99256.22
2024-01-15T22:05:35.913Z,99250.81
2024-01-15T22:08:04.176Z,99253.47
2024-01-15T22:10:31.565Z,99259.34
2024-01-15T22:13:00.183Z,99262.63
2024-01-15T22:15:27.661Z,99255.34
2024-01-15T22:17:56.059Z,99261.31
2024-01-15T22:20:24.229Z,99272.34
2024-01-15T22:22:51.403Z,99273.19
2024-01-15T22:25:18.683Z,99287.16
2024-01-15T22:27:46.168Z,99280.91
2024-01-15T22:30:15.264Z,99264.38
2024-01-15T22:32:42.701Z,99273.03
2024-01-15T22:35:11.591Z,99287.06
2024-01-15T22:37:38.953Z,99289.94
2024-01-15T22:40:10.151Z,99309.13
2024-01-15T22:42:37.733Z,99305.66
2024-01-15T22:45:07.018Z,99289.19
2024-01-15T22:47:34.610Z,99293.78
2024-01-15T22:50:01.751Z,99304.09
2024-01-15T22:52:29.799Z,99306.47
2024-01-15T22:54:57.627Z,99302.44
2024-01-15T22:57:25.138Z,99305.00
2024-01-15T22:59:52.712Z,99293.16
2024-01-15T23:02:22.175Z,99304.81
2024-01-15T23:04:50.077Z,99304.75
2024-01-15T23:07:17.180Z,99313.34
2024-01-15T23:09:45.035Z,99315.41
2024-01-15T23:12:12.301Z,99317.53
2024-01-15T23:14:39.553Z,99309.66
2024-01-15T23:17:08.895Z,99328.44
2024-01-15T23:19:36.708Z,99335.56
2024-01-15T23:22:03.917Z,99330.44
2024-01-15T23:24:31.684Z,99323.63
2024-01-15T23:26:59.733Z,99322.09
2024-01-15T23:29:27.063Z,99317.88
2024-01-15T23:31:54.890Z,99323.25
2024-01-15T23:34:21.944Z,99339.53
2024-01-15T23:36:49.521Z,99349.44
2024-01-15T23:39:16.896Z,99353.44
2024-01-15T23:41:43.944Z,99361.97
2024-01-15T23:44:11.697Z,99354.53
2024-01-15T23:46:38.981Z,99363.81
2024-01-15T23:49:06.631Z,99365.00
2024-01-15T23:51:33.636Z,99369.59
2024-01-15T23:54:05.931Z,99373.03
2024-01-15T23:56:32.969Z,99374.75
2024-01-15T23:59:00.283Z,99381.00
